Terminal Aerodrome Forecast
Issued by NWS

Current Version | Previous Version | Text Only | Print | Product List | Glossary On
Versions: 1 2 3 4 5 6 7 8 9 10 11 12 13 14 15
000
FTUS43 KUNR 020141 AAB
TAFGCC
TAF AMD
KGCC 020141Z 0202/0224 07008KT P6SM SCT090
     FM020300 36009KT P6SM VCTS SCT080CB BKN250
     FM020500 34005KT P6SM BKN080
     FM021500 33015KT P6SM BKN060=

USA.gov is the U.S. government's official web portal to all federal, state and local government web resources and services.